Terminal Aerodrome Forecast
Issued by NWS

Home | Current Version | Previous Version | Text Only | Print | Product List | Glossary Off
Versions: 1 2 3 4 5 6 7 8 9 10 11 12 13 14 15 16 17 18

814
FTUS42 KMHX 181120
TAFOAJ
TAF
KOAJ 181120Z 1812/1912 00000KT 6SM -SHRA VCTS SCT015CB OVC070
      TEMPO 1813/1814 4SM TSRA OVC011CB
     FM181700 18005KT P6SM VCTS BKN060CB
     FM182200 16006KT P6SM BKN060
      AMD LTD TO CLD VIS AND WIND=

USA.gov is the U.S. government's official web portal to all federal, state and local government web resources and services.